YBCGYBBN [KFF254]

Details From YBCG - Gold Coast
To YBBN - Brisbane
Flight Number KFF254
Tags Gold Coast Airport Coolangatta Brisbane
Created
Modified
Stats Distance 61 nm / 114 km
Max Altitude 5,000 ft / 1,524 m
Waypoints 4
Social Downloads 2
Likes 0
Share VATSIM

Download

Looking for another format? Having issues loading an existing format? Contact us
Advertisement - Login to hide

Notes

None

Route

DEP WP1 WP3 ARR

ID Type Via Altitude Latitude Longitude Leg Dist Tot Dist Heading (true) Name
O DEP LATLON - 0 ft / 0 m -28.17254˚ 153.51092˚ - 0 nm - -
WP1 LATLON - 5,000 ft / 1,524 m -28.00289˚ 153.41309˚ 11 nm 11 nm 333° / 333° -
WP3 LATLON - 5,000 ft / 1,524 m -27.56124˚ 152.94153˚ 36 nm 47 nm 317° / 317° -
O ARR LATLON - 0 ft / 0 m -27.40217˚ 153.11859˚ 13 nm 61 nm 45° / 45° -

Altitude Profile

Advertisement - Login to hide

YBCG

Details ICAO YBCG (OOL)
Name Gold Coast International
Region Australia
Timezone Australia/Brisbane (UTC+10.0)
Stats Elevation 20 ft / 6 m (AMSL)
Location -28.166035° 153.506155°
Runways 2
Magnetic Variation 11.330° E

METAR

YBCG 162030Z AUTO 22005KT 9999 // SCT028 24/18 Q1016 RF00.0/000.0

Decode

TAF

TAF YBCG 161737Z 1618/1718 23005KT 9999 FEW020 SCT025 FM162200 04010KT 9999 SCT035

Decode

Departure Runways

ID Width Length Bearing (true) Bearing (mag) Surface Threshold Offset Overrun Length
14 148 ft / 45 m 7,687 ft / 2,343 m 150.04° 138.71° Asphalt 0 ft / 0 m 394 ft / 120 m
17 59 ft / 18 m 1,911 ft / 582 m 184.00° 172.67° Asphalt 0 ft / 0 m 0 ft / 0 m
32 148 ft / 45 m 7,687 ft / 2,343 m 330.04° 318.71° Asphalt 0 ft / 0 m 394 ft / 120 m
35 59 ft / 18 m 1,911 ft / 582 m 4.00° 352.67° Asphalt 0 ft / 0 m 0 ft / 0 m

YBBN

Details ICAO YBBN (BNE)
Name Brisbane Intl
Region Australia
Timezone Australia/Brisbane (UTC+10.0)
Stats Elevation 12 ft / 4 m (AMSL)
Location -27.375714° 153.127710°
Runways 2
Magnetic Variation 10.985° E

METAR

YBBN 162030Z 21004KT 9999 FEW024 24/19 Q1016 FM2200 06010KT 9999 FEW035

Decode

TAF

TAF YBBN 161736Z 1618/1724 20005KT 9999 FEW020 FM162200 06010KT 9999 FEW035 FM171800 20005KT 9999 FEW020

Decode

Destination Runways

ID Width Length Bearing (true) Bearing (mag) Surface Threshold Offset Overrun Length
01 148 ft / 45 m 11,805 ft / 3,598 m 26.93° 15.95° Asphalt 197 ft / 60 m 0 ft / 0 m
14 98 ft / 30 m 5,787 ft / 1,764 m 145.66° 134.68° Asphalt 197 ft / 60 m 0 ft / 0 m
19 148 ft / 45 m 11,805 ft / 3,598 m 206.92° 195.94° Asphalt 0 ft / 0 m 0 ft / 0 m
32 98 ft / 30 m 5,787 ft / 1,764 m 325.66° 314.68° Asphalt 197 ft / 60 m 0 ft / 0 m

Approach Navaids

Runway Type Ident Frequency Range Bearing (true) Bearing (mag) Slope Elevation
01 Localiser IBA 109.50 MHz 18 nm / 33 km 26.70° 15.71° - 28 ft / 9 m (AMSL)
01 Glidescope IBA 109.50 MHz 10 nm / 19 km 26.92° 15.94° 3.00° 13 ft / 4 m (AMSL)
19 Localiser IBS 110.10 MHz 18 nm / 33 km 206.97° 195.98° - 49 ft / 15 m (AMSL)
19 Glidescope IBS 110.10 MHz 10 nm / 19 km 206.92° 195.94° 3.00° 13 ft / 4 m (AMSL)

Popular Alternatives